createdAt,value
2023-03-18T00:00:27.024Z,12.14
2023-03-18T00:02:54.946Z,12.17
2023-03-18T00:05:22.749Z,12.21
2023-03-18T00:07:50.858Z,12.24
2023-03-18T00:10:19.029Z,12.27
2023-03-18T00:12:46.649Z,12.28
2023-03-18T00:15:14.383Z,12.29
2023-03-18T00:17:42.574Z,12.29
2023-03-18T00:20:10.208Z,12.31
2023-03-18T00:22:37.896Z,12.30
2023-03-18T00:25:05.860Z,12.30
2023-03-18T00:27:33.827Z,12.30
2023-03-18T00:30:02.109Z,12.31
2023-03-18T00:32:29.878Z,12.30
2023-03-18T00:34:57.752Z,12.28
2023-03-18T00:37:31.540Z,12.28
2023-03-18T00:39:59.779Z,12.28
2023-03-18T00:42:27.598Z,12.27
2023-03-18T00:44:55.686Z,12.27
2023-03-18T00:47:23.550Z,12.27
2023-03-18T00:49:51.514Z,12.25
2023-03-18T00:52:19.850Z,12.25
2023-03-18T00:54:47.841Z,12.26
2023-03-18T00:57:15.843Z,12.25
2023-03-18T00:59:43.681Z,12.25
2023-03-18T01:02:11.766Z,12.24
2023-03-18T01:04:39.710Z,12.23
2023-03-18T01:07:07.735Z,12.22
2023-03-18T01:09:35.812Z,12.23
2023-03-18T01:12:03.541Z,12.22
2023-03-18T01:14:31.219Z,12.23
2023-03-18T01:16:59.023Z,12.21
2023-03-18T01:19:27.317Z,12.21
2023-03-18T01:21:55.305Z,12.22
2023-03-18T01:24:24.551Z,12.18
2023-03-18T01:26:52.224Z,12.16
2023-03-18T01:29:21.122Z,12.14
2023-03-18T01:31:48.762Z,12.12
2023-03-18T01:34:17.055Z,12.12
2023-03-18T01:36:44.688Z,12.13
2023-03-18T01:39:12.683Z,12.15
2023-03-18T01:41:40.369Z,12.17
2023-03-18T01:44:08.158Z,12.16
2023-03-18T01:46:36.248Z,12.18
2023-03-18T01:49:04.199Z,12.18
2023-03-18T01:51:32.761Z,12.18
2023-03-18T01:54:00.397Z,12.17
2023-03-18T01:56:27.987Z,12.15
2023-03-18T01:58:55.713Z,12.12
2023-03-18T02:01:23.832Z,12.12
2023-03-18T02:03:51.793Z,12.13
2023-03-18T02:06:19.523Z,12.17
2023-03-18T02:08:47.953Z,12.21
2023-03-18T02:11:16.111Z,12.24
2023-03-18T02:13:44.320Z,12.27
2023-03-18T02:16:12.143Z,12.28
2023-03-18T02:18:40.134Z,12.31
2023-03-18T02:21:08.599Z,12.32
2023-03-18T02:23:36.810Z,12.35
2023-03-18T02:26:05.013Z,12.37
2023-03-18T02:28:32.880Z,12.39
2023-03-18T02:31:00.872Z,12.41
2023-03-18T02:33:28.522Z,12.41
2023-03-18T02:35:56.173Z,12.43
2023-03-18T02:38:24.792Z,12.44
2023-03-18T02:40:52.416Z,12.45
2023-03-18T02:43:20.073Z,12.46
2023-03-18T02:45:47.705Z,12.47
2023-03-18T02:48:15.317Z,12.41
2023-03-18T02:50:43.300Z,12.33
2023-03-18T02:53:10.880Z,12.29
2023-03-18T02:55:38.504Z,12.25
2023-03-18T02:58:06.154Z,12.20
2023-03-18T03:00:33.979Z,12.12
2023-03-18T03:03:02.136Z,12.02
2023-03-18T03:05:29.863Z,11.96
2023-03-18T03:07:57.477Z,11.87
2023-03-18T03:10:25.020Z,11.80
2023-03-18T03:12:52.768Z,11.74
2023-03-18T03:15:21.724Z,11.70
2023-03-18T03:17:49.639Z,11.68
2023-03-18T03:20:18.359Z,11.63
2023-03-18T03:22:46.012Z,11.60
2023-03-18T03:25:13.554Z,11.55
2023-03-18T03:27:41.652Z,11.52
2023-03-18T03:30:09.777Z,11.49
2023-03-18T03:32:37.378Z,11.45
2023-03-18T03:35:05.452Z,11.40
2023-03-18T03:37:33.580Z,11.35
2023-03-18T03:40:01.883Z,11.32
2023-03-18T03:42:29.796Z,11.32
2023-03-18T03:44:57.372Z,11.32
2023-03-18T03:47:24.941Z,11.34
2023-03-18T03:49:52.564Z,11.33
2023-03-18T03:52:20.703Z,11.35
2023-03-18T03:54:48.310Z,11.37
2023-03-18T03:57:15.932Z,11.42
2023-03-18T03:59:43.828Z,11.42
2023-03-18T04:02:11.408Z,11.43
2023-03-18T04:04:39.037Z,11.39
2023-03-18T04:07:06.564Z,11.37
2023-03-18T04:09:35.042Z,11.31
2023-03-18T04:12:02.656Z,11.26
2023-03-18T04:14:30.226Z,11.20
2023-03-18T04:17:00.736Z,11.17
2023-03-18T04:19:29.136Z,11.12
2023-03-18T04:21:56.835Z,11.07
2023-03-18T04:24:24.429Z,11.02
2023-03-18T04:26:52.040Z,10.98
2023-03-18T04:29:19.621Z,10.93
2023-03-18T04:31:47.287Z,10.90
2023-03-18T04:34:14.982Z,10.88
2023-03-18T04:36:42.544Z,10.85
2023-03-18T04:39:10.736Z,10.84
2023-03-18T04:41:39.319Z,10.82
2023-03-18T04:44:07.250Z,10.81
2023-03-18T04:46:34.862Z,10.77
2023-03-18T04:49:02.516Z,10.72
2023-03-18T04:51:30.148Z,10.68
2023-03-18T04:53:58.315Z,10.65
2023-03-18T04:56:26.145Z,10.62
2023-03-18T04:58:53.976Z,10.62
2023-03-18T05:01:21.624Z,10.63
2023-03-18T05:03:49.278Z,10.66
2023-03-18T05:06:18.775Z,10.69
2023-03-18T05:08:46.365Z,10.72
2023-03-18T05:11:13.972Z,10.76
2023-03-18T05:13:41.721Z,10.80
2023-03-18T05:16:10.116Z,10.86
2023-03-18T05:18:37.829Z,10.89
2023-03-18T05:21:05.433Z,10.91
2023-03-18T05:23:33.627Z,10.94
2023-03-18T05:26:01.205Z,10.97
2023-03-18T05:28:29.060Z,11.04
2023-03-18T05:30:57.277Z,11.10
2023-03-18T05:33:24.883Z,11.15
2023-03-18T05:35:52.482Z,11.21
2023-03-18T05:38:20.024Z,11.26
2023-03-18T05:40:47.643Z,11.31
2023-03-18T05:43:15.764Z,11.34
2023-03-18T05:45:44.238Z,11.37
2023-03-18T05:48:11.943Z,11.41
2023-03-18T05:50:39.638Z,11.43
2023-03-18T05:53:07.215Z,11.49
2023-03-18T05:55:35.029Z,11.53
2023-03-18T05:58:03.173Z,11.55
2023-03-18T06:00:31.140Z,11.58
2023-03-18T06:02:58.812Z,11.60
2023-03-18T06:05:26.388Z,11.61
2023-03-18T06:07:54.130Z,11.64
2023-03-18T06:10:22.801Z,11.69
2023-03-18T06:12:50.840Z,11.74
2023-03-18T06:15:18.878Z,11.82
2023-03-18T06:17:46.547Z,11.88
2023-03-18T06:20:14.588Z,11.94
2023-03-18T06:22:42.220Z,11.99
2023-03-18T06:25:10.157Z,12.01
2023-03-18T06:27:37.768Z,12.02
2023-03-18T06:30:05.629Z,12.03
2023-03-18T06:32:34.372Z,12.04
2023-03-18T06:35:02.400Z,12.06
2023-03-18T06:37:29.991Z,12.06
2023-03-18T06:39:57.614Z,12.06
2023-03-18T06:42:29.404Z,12.07
2023-03-18T06:44:57.527Z,12.09
2023-03-18T06:47:25.173Z,12.10
2023-03-18T06:49:52.785Z,12.12
2023-03-18T06:52:20.357Z,12.13
2023-03-18T06:54:48.017Z,12.16
2023-03-18T06:57:17.942Z,12.18
2023-03-18T06:59:45.703Z,12.20
2023-03-18T07:02:13.324Z,12.22
2023-03-18T07:04:40.978Z,12.22
2023-03-18T07:07:08.624Z,12.23
2023-03-18T07:09:36.903Z,12.23
2023-03-18T07:12:06.527Z,12.23
2023-03-18T07:14:34.131Z,12.24
2023-03-18T07:17:02.372Z,12.24
2023-03-18T07:19:30.061Z,12.26
2023-03-18T07:21:58.003Z,12.27
2023-03-18T07:24:26.343Z,12.26
2023-03-18T07:26:54.806Z,12.26
2023-03-18T07:29:22.427Z,12.28
2023-03-18T07:31:50.188Z,12.28
2023-03-18T07:34:19.330Z,12.30
2023-03-18T07:36:47.041Z,12.33
2023-03-18T07:39:15.200Z,12.37
2023-03-18T07:41:42.967Z,12.44
2023-03-18T07:44:10.629Z,12.51
2023-03-18T07:46:38.988Z,12.58
2023-03-18T07:49:06.752Z,12.64
2023-03-18T07:51:34.363Z,12.72
2023-03-18T07:54:02.036Z,12.80
2023-03-18T07:56:29.731Z,12.85
2023-03-18T07:58:58.001Z,12.89
2023-03-18T08:01:26.223Z,12.96
2023-03-18T08:03:53.993Z,13.05
2023-03-18T08:06:21.720Z,13.14
2023-03-18T08:08:49.521Z,13.21
2023-03-18T08:11:17.633Z,13.26
2023-03-18T08:13:45.375Z,13.35
2023-03-18T08:16:13.739Z,13.44
2023-03-18T08:18:41.891Z,13.51
2023-03-18T08:21:09.732Z,13.61
2023-03-18T08:23:37.546Z,13.70
2023-03-18T08:26:05.193Z,13.84
2023-03-18T08:28:32.921Z,13.93
2023-03-18T08:31:01.447Z,13.98
2023-03-18T08:33:29.148Z,14.03
2023-03-18T08:35:58.460Z,14.08
2023-03-18T08:38:26.208Z,14.11
2023-03-18T08:40:53.836Z,14.12
2023-03-18T08:43:22.597Z,14.12
2023-03-18T08:45:50.346Z,14.13
2023-03-18T08:48:18.617Z,14.13
2023-03-18T08:50:47.136Z,14.17
2023-03-18T08:53:15.034Z,14.22
2023-03-18T08:55:42.686Z,14.22
2023-03-18T08:58:10.380Z,14.25
2023-03-18T09:00:38.547Z,14.30
2023-03-18T09:03:06.234Z,14.38
2023-03-18T09:05:34.574Z,14.53
2023-03-18T09:08:04.058Z,14.64
2023-03-18T09:10:31.781Z,14.77
2023-03-18T09:12:59.535Z,14.88
2023-03-18T09:15:27.844Z,14.96
2023-03-18T09:18:10.331Z,15.05
2023-03-18T09:20:39.552Z,15.20
2023-03-18T09:23:07.920Z,15.31
2023-03-18T09:25:35.984Z,15.42
2023-03-18T09:28:04.152Z,15.60
2023-03-18T09:30:32.248Z,15.81
2023-03-18T09:33:00.227Z,15.90
2023-03-18T09:35:29.959Z,15.80
2023-03-18T09:37:57.701Z,15.65
2023-03-18T09:40:25.524Z,15.51
2023-03-18T09:42:53.505Z,15.51
2023-03-18T09:45:21.248Z,15.54
2023-03-18T09:47:51.261Z,15.52
2023-03-18T09:50:19.763Z,15.53
2023-03-18T09:52:47.421Z,15.51
2023-03-18T09:55:15.127Z,15.64
2023-03-18T09:57:43.206Z,15.91
2023-03-18T10:00:12.578Z,16.23
2023-03-18T10:02:40.490Z,16.62
2023-03-18T10:05:08.395Z,17.20
2023-03-18T10:07:36.907Z,17.97
2023-03-18T10:10:05.136Z,18.57
2023-03-18T10:12:33.452Z,19.00
2023-03-18T10:15:01.492Z,19.50
2023-03-18T10:17:29.342Z,19.86
2023-03-18T10:19:57.289Z,20.19
2023-03-18T10:22:24.974Z,20.47
2023-03-18T10:24:53.501Z,20.53
2023-03-18T10:27:21.353Z,20.71
2023-03-18T10:29:49.586Z,20.75
2023-03-18T10:32:17.774Z,20.77
2023-03-18T10:34:46.291Z,20.85
2023-03-18T10:37:14.880Z,20.94
2023-03-18T10:39:42.729Z,21.16
2023-03-18T10:42:10.607Z,21.47
2023-03-18T10:44:38.427Z,21.98
2023-03-18T10:47:06.499Z,22.57
2023-03-18T10:49:35.858Z,23.20
2023-03-18T10:52:06.117Z,23.50
2023-03-18T10:54:34.328Z,23.50
2023-03-18T10:57:02.273Z,23.52
2023-03-18T10:59:30.217Z,23.75
2023-03-18T11:01:58.708Z,23.94
2023-03-18T11:04:26.822Z,24.08
2023-03-18T11:06:54.581Z,24.19
2023-03-18T11:09:22.268Z,24.60
2023-03-18T11:11:50.265Z,24.55
2023-03-18T11:14:20.353Z,24.50
2023-03-18T11:16:49.936Z,24.47
2023-03-18T11:19:19.044Z,24.30
2023-03-18T11:21:46.815Z,24.13
2023-03-18T11:24:25.205Z,24.15
2023-03-18T11:26:53.109Z,24.28
2023-03-18T11:29:21.216Z,24.58
2023-03-18T11:31:49.752Z,24.99
2023-03-18T11:34:17.663Z,25.42
2023-03-18T11:36:45.472Z,25.76
2023-03-18T11:39:13.488Z,25.94
2023-03-18T11:41:41.309Z,26.12
2023-03-18T11:44:09.277Z,26.35
2023-03-18T11:46:37.805Z,26.64
2023-03-18T11:49:06.723Z,26.30
2023-03-18T11:51:34.683Z,25.40
2023-03-18T11:54:03.328Z,25.87
2023-03-18T11:56:31.178Z,26.76
2023-03-18T11:58:59.303Z,27.59
2023-03-18T12:01:27.312Z,27.41
2023-03-18T12:03:55.965Z,26.32
2023-03-18T12:06:23.706Z,25.59
2023-03-18T12:08:51.590Z,25.80
2023-03-18T12:11:20.219Z,25.47
2023-03-18T12:13:48.894Z,24.70
2023-03-18T12:16:17.535Z,24.23
2023-03-18T12:18:45.299Z,24.62
2023-03-18T12:21:13.221Z,24.16
2023-03-18T12:23:41.656Z,24.16
2023-03-18T12:26:09.843Z,25.05
2023-03-18T12:28:37.993Z,24.78
2023-03-18T12:31:06.069Z,24.11
2023-03-18T12:33:34.244Z,24.28
2023-03-18T12:36:02.296Z,24.88
2023-03-18T12:38:30.680Z,25.57
2023-03-18T12:40:58.500Z,25.58
2023-03-18T12:43:27.340Z,24.85
2023-03-18T12:45:55.261Z,24.33
2023-03-18T12:48:40.699Z,24.29
2023-03-18T12:51:11.646Z,23.74
2023-03-18T12:53:39.814Z,22.89
2023-03-18T12:56:08.672Z,22.30
2023-03-18T12:58:38.102Z,22.12
2023-03-18T13:01:07.435Z,21.96
2023-03-18T13:03:38.784Z,21.81
2023-03-18T13:06:06.745Z,21.75
2023-03-18T13:08:34.742Z,21.81
2023-03-18T13:11:05.158Z,21.90
2023-03-18T13:13:33.360Z,21.80
2023-03-18T13:16:01.942Z,21.62
2023-03-18T13:18:29.742Z,21.40
2023-03-18T13:20:57.813Z,21.17
2023-03-18T13:23:26.039Z,20.94
2023-03-18T13:25:54.463Z,20.72
2023-03-18T13:28:23.575Z,20.54
2023-03-18T13:30:51.644Z,20.45
2023-03-18T13:33:19.482Z,20.29
2023-03-18T13:35:47.492Z,20.15
2023-03-18T13:38:16.072Z,19.96
2023-03-18T13:40:44.860Z,19.84
2023-03-18T13:43:13.697Z,19.84
2023-03-18T13:45:41.491Z,20.02
2023-03-18T13:48:09.831Z,20.33
2023-03-18T13:50:38.105Z,20.78
2023-03-18T13:53:06.366Z,20.93
2023-03-18T13:55:34.542Z,20.73
2023-03-18T13:58:03.370Z,20.75
2023-03-18T14:00:33.291Z,21.01
2023-03-18T14:03:01.157Z,20.97
2023-03-18T14:05:29.792Z,20.61
2023-03-18T14:07:57.609Z,20.25
2023-03-18T14:10:25.843Z,19.92
2023-03-18T14:12:53.827Z,19.67
2023-03-18T14:15:21.672Z,19.50
2023-03-18T14:17:49.651Z,19.40
2023-03-18T14:20:17.797Z,19.41
2023-03-18T14:22:45.680Z,19.56
2023-03-18T14:25:13.542Z,19.96
2023-03-18T14:27:41.602Z,20.40
2023-03-18T14:30:09.905Z,20.69
2023-03-18T14:32:38.326Z,20.75
2023-03-18T14:35:06.223Z,20.72
2023-03-18T14:37:34.271Z,20.59
2023-03-18T14:40:02.270Z,20.31
2023-03-18T14:42:30.785Z,20.09
2023-03-18T14:44:58.557Z,19.88
2023-03-18T14:47:38.068Z,19.68
2023-03-18T14:50:06.536Z,19.43
2023-03-18T14:52:35.150Z,19.26
2023-03-18T14:55:03.729Z,19.05
2023-03-18T14:57:31.818Z,18.87
2023-03-18T14:59:59.720Z,18.67
2023-03-18T15:02:27.710Z,18.53
2023-03-18T15:04:56.031Z,18.38
2023-03-18T15:07:23.851Z,18.24
2023-03-18T15:09:51.707Z,18.13
2023-03-18T15:12:19.702Z,17.89
2023-03-18T15:14:48.315Z,17.70
2023-03-18T15:17:17.334Z,17.63
2023-03-18T15:19:45.183Z,17.85
2023-03-18T15:22:12.977Z,18.01
2023-03-18T15:24:40.933Z,18.04
2023-03-18T15:27:08.871Z,18.00
2023-03-18T15:29:37.786Z,17.93
2023-03-18T15:32:06.048Z,17.81
2023-03-18T15:34:35.984Z,17.68
2023-03-18T15:37:04.858Z,17.50
2023-03-18T15:39:32.768Z,17.28
2023-03-18T15:42:01.036Z,17.08
2023-03-18T15:44:29.640Z,16.75
2023-03-18T15:46:57.626Z,16.25
2023-03-18T15:49:25.756Z,15.59
2023-03-18T15:51:54.015Z,15.01
2023-03-18T15:54:23.027Z,14.53
2023-03-18T15:56:53.314Z,14.15
2023-03-18T15:59:23.397Z,13.82
2023-03-18T16:01:52.988Z,13.56
2023-03-18T16:04:21.926Z,13.42
2023-03-18T16:06:50.296Z,13.35
2023-03-18T16:09:18.596Z,13.31
2023-03-18T16:11:46.672Z,13.28
2023-03-18T16:14:14.400Z,13.31
2023-03-18T16:16:43.058Z,13.37
2023-03-18T16:19:11.244Z,13.44
2023-03-18T16:21:39.042Z,13.50
2023-03-18T16:24:07.006Z,13.51
2023-03-18T16:26:34.782Z,13.50
2023-03-18T16:29:02.754Z,13.45
2023-03-18T16:31:31.081Z,13.40
2023-03-18T16:33:58.966Z,13.38
2023-03-18T16:36:26.722Z,13.42
2023-03-18T16:38:54.928Z,13.50
2023-03-18T16:41:22.846Z,13.52
2023-03-18T16:43:53.261Z,13.53
2023-03-18T16:46:21.308Z,13.53
2023-03-18T16:48:49.720Z,13.54
2023-03-18T16:51:19.231Z,13.51
2023-03-18T16:53:47.330Z,13.47
2023-03-18T16:56:16.296Z,13.44
2023-03-18T16:58:44.827Z,13.42
2023-03-18T17:01:13.698Z,13.41
2023-03-18T17:03:41.499Z,13.38
2023-03-18T17:06:10.395Z,13.37
2023-03-18T17:08:39.371Z,13.36
2023-03-18T17:11:07.776Z,13.35
2023-03-18T17:13:37.627Z,13.31
2023-03-18T17:16:05.991Z,13.24
2023-03-18T17:18:33.815Z,13.16
2023-03-18T17:21:04.141Z,13.07
2023-03-18T17:23:32.457Z,13.00
2023-03-18T17:26:00.824Z,12.94
2023-03-18T17:28:30.161Z,12.89
2023-03-18T17:30:58.131Z,12.86
2023-03-18T17:33:26.454Z,12.81
2023-03-18T17:35:54.374Z,12.78
2023-03-18T17:38:22.242Z,12.77
2023-03-18T17:40:50.198Z,12.72
2023-03-18T17:43:18.136Z,12.69
2023-03-18T17:45:46.644Z,12.64
2023-03-18T17:48:14.544Z,12.61
2023-03-18T17:50:42.314Z,12.56
2023-03-18T17:53:10.195Z,12.48
2023-03-18T17:55:38.087Z,12.41
2023-03-18T17:58:06.181Z,12.37
2023-03-18T18:00:34.142Z,12.34
2023-03-18T18:03:02.294Z,12.30
2023-03-18T18:05:30.218Z,12.27
2023-03-18T18:07:58.635Z,12.23
2023-03-18T18:10:27.366Z,12.17
2023-03-18T18:12:55.627Z,12.15
2023-03-18T18:15:25.834Z,12.07
2023-03-18T18:17:53.741Z,12.03
2023-03-18T18:20:21.638Z,11.99
2023-03-18T18:22:50.741Z,11.97
2023-03-18T18:25:18.669Z,11.95
2023-03-18T18:27:47.749Z,11.91
2023-03-18T18:30:15.815Z,11.86
2023-03-18T18:32:43.967Z,11.81
2023-03-18T18:35:13.418Z,11.76
2023-03-18T18:37:42.157Z,11.72
2023-03-18T18:40:10.813Z,11.67
2023-03-18T18:42:40.929Z,11.62
2023-03-18T18:45:10.159Z,11.57
2023-03-18T18:47:39.419Z,11.52
2023-03-18T18:50:07.401Z,11.46
2023-03-18T18:52:35.645Z,11.40
2023-03-18T18:55:04.066Z,11.33
2023-03-18T18:57:32.470Z,11.27
2023-03-18T19:00:00.919Z,11.21
2023-03-18T19:02:28.765Z,11.17
2023-03-18T19:04:56.582Z,11.11
2023-03-18T19:07:25.099Z,11.08
2023-03-18T19:09:53.703Z,11.02
2023-03-18T19:12:22.351Z,10.97
2023-03-18T19:14:50.705Z,10.93
2023-03-18T19:17:18.479Z,10.88
2023-03-18T19:19:46.403Z,10.82
2023-03-18T19:22:14.767Z,10.80
2023-03-18T19:24:44.461Z,10.79
2023-03-18T19:27:13.144Z,10.76
2023-03-18T19:29:41.853Z,10.73
2023-03-18T19:32:09.774Z,10.71
2023-03-18T19:34:37.570Z,10.69
2023-03-18T19:37:08.392Z,10.64
2023-03-18T19:39:36.782Z,10.59
2023-03-18T19:42:04.661Z,10.54
2023-03-18T19:44:32.834Z,10.50
2023-03-18T19:47:01.516Z,10.49
2023-03-18T19:49:30.205Z,10.49
2023-03-18T19:51:58.441Z,10.53
2023-03-18T19:54:27.347Z,10.54
2023-03-18T19:56:55.333Z,10.53
2023-03-18T19:59:23.360Z,10.52
2023-03-18T20:01:53.014Z,10.54
2023-03-18T20:04:20.989Z,10.59
2023-03-18T20:06:50.549Z,10.64
2023-03-18T20:09:19.479Z,10.70
2023-03-18T20:11:47.369Z,10.76
2023-03-18T20:14:15.768Z,10.80
2023-03-18T20:16:43.633Z,10.84
2023-03-18T20:19:11.705Z,10.88
2023-03-18T20:21:39.733Z,10.91
2023-03-18T20:24:08.306Z,10.96
2023-03-18T20:26:37.541Z,11.02
2023-03-18T20:29:05.660Z,11.09
2023-03-18T20:31:33.701Z,11.13
2023-03-18T20:34:01.669Z,11.13
2023-03-18T20:36:29.535Z,11.15
2023-03-18T20:38:58.110Z,11.13
2023-03-18T20:41:25.913Z,11.10
2023-03-18T20:43:54.285Z,11.08
2023-03-18T20:46:25.361Z,11.04
2023-03-18T20:48:53.662Z,11.01
2023-03-18T20:51:22.953Z,10.99
2023-03-18T20:53:50.836Z,10.95
2023-03-18T20:56:22.912Z,10.95
2023-03-18T20:58:50.792Z,10.94
2023-03-18T21:01:18.591Z,10.93
2023-03-18T21:03:47.217Z,10.89
2023-03-18T21:06:15.134Z,10.87
2023-03-18T21:08:42.943Z,10.85
2023-03-18T21:11:10.930Z,10.82
2023-03-18T21:13:39.300Z,10.83
2023-03-18T21:16:08.455Z,10.85
2023-03-18T21:18:37.121Z,10.87
2023-03-18T21:21:04.883Z,10.88
2023-03-18T21:23:33.137Z,10.88
2023-03-18T21:26:01.421Z,10.89
2023-03-18T21:28:30.044Z,10.90
2023-03-18T21:30:58.669Z,10.93
2023-03-18T21:33:26.657Z,10.94
2023-03-18T21:35:57.281Z,10.94
2023-03-18T21:38:25.879Z,10.94
2023-03-18T21:40:54.793Z,10.97
2023-03-18T21:43:22.636Z,10.98
2023-03-18T21:45:50.736Z,10.95
2023-03-18T21:48:18.872Z,10.90
2023-03-18T21:50:46.940Z,10.88
2023-03-18T21:53:15.284Z,10.88
2023-03-18T21:55:43.244Z,10.87
2023-03-18T21:58:11.048Z,10.88
2023-03-18T22:00:38.853Z,10.91
2023-03-18T22:03:06.872Z,10.93
2023-03-18T22:05:35.406Z,10.94
2023-03-18T22:08:03.351Z,10.95
2023-03-18T22:10:31.958Z,10.91
2023-03-18T22:12:59.744Z,10.87
2023-03-18T22:15:27.624Z,10.77
2023-03-18T22:17:56.061Z,10.69
2023-03-18T22:20:23.837Z,10.61
2023-03-18T22:22:51.887Z,10.54
2023-03-18T22:25:19.906Z,10.52
2023-03-18T22:27:47.841Z,10.47
2023-03-18T22:30:16.200Z,10.44
2023-03-18T22:32:44.757Z,10.42
2023-03-18T22:35:12.614Z,10.38
2023-03-18T22:37:40.445Z,10.34
2023-03-18T22:40:08.481Z,10.30
2023-03-18T22:42:36.726Z,10.31
2023-03-18T22:45:04.511Z,10.36
2023-03-18T22:47:32.444Z,10.45
2023-03-18T22:50:00.245Z,10.54
2023-03-18T22:52:28.047Z,10.62
2023-03-18T22:54:57.395Z,10.69
2023-03-18T22:57:26.459Z,10.75
2023-03-18T22:59:54.254Z,10.78
2023-03-18T23:02:22.134Z,10.82
2023-03-18T23:04:49.854Z,10.86
2023-03-18T23:07:18.133Z,10.89
2023-03-18T23:09:56.245Z,10.86
2023-03-18T23:12:25.919Z,10.81
2023-03-18T23:14:54.068Z,10.76
2023-03-18T23:17:22.332Z,10.74
2023-03-18T23:19:50.075Z,10.70
2023-03-18T23:22:17.866Z,10.65
2023-03-18T23:24:45.781Z,10.66
2023-03-18T23:27:13.456Z,10.66
2023-03-18T23:29:41.777Z,10.64
2023-03-18T23:32:09.492Z,10.60
2023-03-18T23:34:37.161Z,10.52
2023-03-18T23:37:05.400Z,10.43
2023-03-18T23:39:33.507Z,10.34
2023-03-18T23:42:02.104Z,10.26
2023-03-18T23:44:29.834Z,10.19
2023-03-18T23:46:57.633Z,10.14
2023-03-18T23:49:28.393Z,10.11
2023-03-18T23:51:56.271Z,10.05
2023-03-18T23:54:24.232Z,9.99
2023-03-18T23:56:51.910Z,9.96
2023-03-18T23:59:20.069Z,9.91
